createdAt,value
2018-11-26T00:00:17.227Z,26.67
2018-11-26T00:02:45.713Z,28.50
2018-11-26T00:05:14.304Z,25.87
2018-11-26T00:07:42.978Z,29.77
2018-11-26T00:10:22.848Z,30.63
2018-11-26T00:12:51.827Z,28.40
2018-11-26T00:15:20.371Z,27.70
2018-11-26T00:17:48.852Z,26.90
2018-11-26T00:20:17.312Z,29.40
2018-11-26T00:22:45.842Z,27.60
2018-11-26T00:25:14.427Z,30.50
2018-11-26T00:27:42.883Z,29.70
2018-11-26T00:30:11.416Z,27.87
2018-11-26T00:32:39.985Z,29.50
2018-11-26T00:35:08.591Z,30.17
2018-11-26T00:37:37.153Z,31.20
2018-11-26T00:40:07.680Z,34.67
2018-11-26T00:42:36.260Z,35.07
2018-11-26T00:45:04.871Z,37.97
2018-11-26T00:47:33.310Z,37.67
2018-11-26T00:50:01.873Z,40.13
2018-11-26T00:52:30.495Z,37.40
2018-11-26T00:54:58.996Z,35.23
2018-11-26T00:57:27.881Z,36.43
2018-11-26T00:59:56.342Z,35.90
2018-11-26T01:02:24.885Z,38.47
2018-11-26T01:04:53.364Z,38.53
2018-11-26T01:07:21.860Z,42.00
2018-11-26T01:09:50.473Z,43.37
2018-11-26T01:12:19.051Z,34.13
2018-11-26T01:14:47.639Z,39.03
2018-11-26T01:17:16.211Z,42.87
2018-11-26T01:19:44.717Z,39.10
2018-11-26T01:22:13.181Z,37.97
2018-11-26T01:24:41.641Z,39.57
2018-11-26T01:27:10.070Z,40.73
2018-11-26T01:29:38.707Z,41.87
2018-11-26T01:32:07.167Z,37.20
2018-11-26T01:34:35.668Z,36.63
2018-11-26T01:37:04.135Z,36.53
2018-11-26T01:39:32.791Z,37.57
2018-11-26T01:42:01.353Z,36.70
2018-11-26T01:44:30.135Z,37.67
2018-11-26T01:46:58.765Z,41.47
2018-11-26T01:49:27.278Z,35.60
2018-11-26T01:51:55.887Z,38.23
2018-11-26T01:54:24.444Z,36.53
2018-11-26T01:56:53.039Z,29.77
2018-11-26T01:59:21.550Z,33.87
2018-11-26T02:01:50.113Z,32.30
2018-11-26T02:04:18.590Z,28.13
2018-11-26T02:06:47.076Z,28.57
2018-11-26T02:09:15.552Z,32.43
2018-11-26T02:11:44.082Z,33.63
2018-11-26T02:14:12.564Z,31.60
2018-11-26T02:16:41.155Z,29.93
2018-11-26T02:19:09.592Z,32.83
2018-11-26T02:21:38.121Z,30.70
2018-11-26T02:24:06.789Z,32.77
2018-11-26T02:26:35.716Z,30.23
2018-11-26T02:29:04.235Z,35.50
2018-11-26T02:31:32.794Z,30.63
2018-11-26T02:34:01.310Z,30.07
2018-11-26T02:36:29.903Z,32.03
2018-11-26T02:38:58.433Z,30.70
2018-11-26T02:41:26.853Z,32.93
2018-11-26T02:43:55.326Z,29.43
2018-11-26T02:46:23.958Z,29.93
2018-11-26T02:48:52.427Z,29.10
2018-11-26T02:51:20.878Z,27.27
2018-11-26T02:53:49.357Z,34.33
2018-11-26T02:56:17.937Z,32.10
2018-11-26T02:58:46.383Z,31.37
2018-11-26T03:01:14.816Z,29.77
2018-11-26T03:03:43.517Z,28.40
2018-11-26T03:06:12.045Z,28.40
2018-11-26T03:08:40.651Z,30.13
2018-11-26T03:11:09.182Z,29.63
2018-11-26T03:13:37.864Z,30.60
2018-11-26T03:16:07.043Z,31.63
2018-11-26T03:18:35.486Z,33.13
2018-11-26T03:21:03.954Z,31.00
2018-11-26T03:23:32.456Z,31.73
2018-11-26T03:26:00.906Z,29.93
2018-11-26T03:28:29.402Z,33.83
2018-11-26T03:30:57.924Z,31.13
2018-11-26T03:33:26.522Z,33.40
2018-11-26T03:35:55.096Z,30.13
2018-11-26T03:38:34.020Z,34.73
2018-11-26T03:41:02.666Z,33.37
2018-11-26T03:43:31.256Z,34.30
2018-11-26T03:45:59.749Z,32.27
2018-11-26T03:48:28.164Z,36.43
2018-11-26T03:50:56.700Z,35.57
2018-11-26T03:53:25.180Z,34.07
2018-11-26T03:55:53.925Z,36.80
2018-11-26T03:58:22.371Z,33.00
2018-11-26T04:00:53.025Z,36.07
2018-11-26T04:03:21.904Z,35.93
2018-11-26T04:05:50.453Z,35.40
2018-11-26T04:08:18.920Z,33.47
2018-11-26T04:10:47.563Z,38.93
2018-11-26T04:13:16.032Z,34.67
2018-11-26T04:15:44.982Z,36.67
2018-11-26T04:18:13.573Z,41.03
2018-11-26T04:20:42.339Z,37.73
2018-11-26T04:23:10.869Z,42.03
2018-11-26T04:25:39.360Z,39.57
2018-11-26T04:28:07.938Z,39.07
2018-11-26T04:30:36.397Z,36.57
2018-11-26T04:33:05.224Z,40.17
2018-11-26T04:35:33.801Z,39.80
2018-11-26T04:38:02.461Z,41.20
2018-11-26T04:40:30.890Z,37.57
2018-11-26T04:42:59.376Z,39.00
2018-11-26T04:45:27.975Z,38.43
2018-11-26T04:47:56.492Z,40.57
2018-11-26T04:50:24.932Z,36.83
2018-11-26T04:52:53.530Z,42.03
2018-11-26T04:55:21.984Z,38.23
2018-11-26T04:57:50.412Z,44.50
2018-11-26T05:00:18.927Z,39.47
2018-11-26T05:02:47.691Z,40.73
2018-11-26T05:05:16.277Z,42.97
2018-11-26T05:07:44.806Z,46.27
2018-11-26T05:10:14.447Z,44.80
2018-11-26T05:12:43.024Z,37.97
2018-11-26T05:15:12.685Z,38.37
2018-11-26T05:17:41.138Z,39.57
2018-11-26T05:20:13.653Z,44.10
2018-11-26T05:22:42.356Z,45.93
2018-11-26T05:25:11.444Z,44.50
2018-11-26T05:27:39.909Z,41.67
2018-11-26T05:30:12.491Z,40.73
2018-11-26T05:32:41.058Z,37.70
2018-11-26T05:35:10.841Z,42.47
2018-11-26T05:37:39.431Z,39.57
2018-11-26T05:40:10.454Z,45.33
2018-11-26T05:42:38.995Z,42.17
2018-11-26T05:45:10.127Z,50.17
2018-11-26T05:47:38.607Z,42.73
2018-11-26T05:50:09.912Z,39.20
2018-11-26T05:52:39.363Z,36.73
2018-11-26T05:55:12.230Z,31.37
2018-11-26T05:57:40.815Z,33.73
2018-11-26T06:00:13.391Z,31.43
2018-11-26T06:02:41.867Z,32.87
2018-11-26T06:05:10.541Z,30.37
2018-11-26T06:07:39.024Z,33.30
2018-11-26T06:10:09.221Z,35.37
2018-11-26T06:12:37.915Z,30.83
2018-11-26T06:15:09.841Z,32.10
2018-11-26T06:17:38.296Z,34.57
2018-11-26T06:20:08.373Z,34.00
2018-11-26T06:22:36.833Z,30.90
2018-11-26T06:25:07.962Z,28.03
2018-11-26T06:27:36.484Z,30.30
2018-11-26T06:30:08.726Z,29.73
2018-11-26T06:32:37.351Z,31.23
2018-11-26T06:35:10.869Z,34.70
2018-11-26T06:37:39.552Z,34.33
2018-11-26T06:40:09.155Z,30.50
2018-11-26T06:42:37.627Z,33.90
2018-11-26T06:45:10.388Z,31.03
2018-11-26T06:47:38.881Z,31.20
2018-11-26T06:50:09.217Z,30.73
2018-11-26T06:52:37.724Z,34.03
2018-11-26T06:55:07.756Z,31.53
2018-11-26T06:57:36.244Z,29.70
2018-11-26T07:00:06.640Z,33.57
2018-11-26T07:02:35.109Z,36.20
2018-11-26T07:05:04.133Z,33.93
2018-11-26T07:07:33.464Z,33.97
2018-11-26T07:10:01.931Z,29.03
2018-11-26T07:12:30.480Z,31.50
2018-11-26T07:14:59.596Z,31.23
2018-11-26T07:17:28.009Z,33.67
2018-11-26T07:19:56.453Z,30.83
2018-11-26T07:22:24.941Z,34.97
2018-11-26T07:24:53.630Z,31.90
2018-11-26T07:27:22.149Z,37.83
2018-11-26T07:29:50.705Z,33.17
2018-11-26T07:32:19.152Z,31.37
2018-11-26T07:34:47.715Z,33.00
2018-11-26T07:37:16.273Z,29.50
2018-11-26T07:39:44.691Z,34.87
2018-11-26T07:42:13.401Z,34.63
2018-11-26T07:44:41.952Z,30.63
2018-11-26T07:47:10.646Z,34.27
2018-11-26T07:49:39.173Z,27.83
2018-11-26T07:52:08.744Z,31.50
2018-11-26T07:54:37.383Z,34.27
2018-11-26T07:57:06.389Z,34.20
2018-11-26T07:59:34.959Z,31.40
2018-11-26T08:02:04.084Z,33.17
2018-11-26T08:04:32.623Z,37.17
2018-11-26T08:07:01.302Z,38.23
2018-11-26T08:09:29.890Z,37.53
2018-11-26T08:11:58.475Z,36.17
2018-11-26T08:14:27.001Z,33.87
2018-11-26T08:16:55.439Z,36.53
2018-11-26T08:19:24.008Z,33.17
2018-11-26T08:21:52.659Z,34.73
2018-11-26T08:24:21.122Z,32.47
2018-11-26T08:26:49.553Z,30.20
2018-11-26T08:29:18.077Z,31.87
2018-11-26T08:31:46.579Z,34.40
2018-11-26T08:34:15.009Z,35.17
2018-11-26T08:36:44.027Z,33.07
2018-11-26T08:39:19.211Z,32.53
2018-11-26T08:41:52.655Z,28.77
2018-11-26T08:44:26.613Z,29.53
2018-11-26T08:47:00.618Z,29.20
2018-11-26T08:49:29.179Z,27.57
2018-11-26T08:51:57.709Z,29.77
2018-11-26T08:54:26.322Z,30.90
2018-11-26T08:56:54.888Z,28.60
2018-11-26T08:59:23.481Z,31.13
2018-11-26T09:01:57.353Z,27.40
2018-11-26T09:04:31.803Z,28.67
2018-11-26T09:07:00.290Z,32.97
2018-11-26T09:09:32.825Z,29.97
2018-11-26T09:11:57.268Z,32.33
2018-11-26T09:14:25.928Z,30.10
2018-11-26T09:16:54.407Z,29.33
2018-11-26T09:19:22.933Z,30.80
2018-11-26T09:21:51.383Z,33.20
2018-11-26T09:24:19.824Z,32.10
2018-11-26T09:26:48.444Z,30.50
2018-11-26T09:29:16.912Z,28.57
2018-11-26T09:31:45.371Z,31.63
2018-11-26T09:34:13.975Z,30.40
2018-11-26T09:36:42.438Z,34.80
2018-11-26T09:39:11.767Z,35.10
2018-11-26T09:41:40.775Z,31.13
2018-11-26T09:44:09.464Z,32.80
2018-11-26T09:46:38.012Z,33.63
2018-11-26T09:49:06.524Z,38.60
2018-11-26T09:51:41.979Z,35.77
2018-11-26T09:54:03.722Z,33.90
2018-11-26T09:56:32.303Z,34.23
2018-11-26T09:59:00.736Z,31.03
2018-11-26T10:01:29.203Z,38.30
2018-11-26T10:03:57.654Z,28.07
2018-11-26T10:06:26.119Z,28.33
2018-11-26T10:08:54.596Z,33.67
2018-11-26T10:11:23.208Z,32.50
2018-11-26T10:13:51.692Z,35.57
2018-11-26T10:16:20.133Z,32.77
2018-11-26T10:18:48.639Z,30.77
2018-11-26T10:21:17.132Z,30.53
2018-11-26T10:23:45.697Z,30.10
2018-11-26T10:26:14.475Z,32.97
2018-11-26T10:28:43.011Z,34.00
2018-11-26T10:31:11.580Z,34.27
2018-11-26T10:33:40.252Z,31.67
2018-11-26T10:36:08.799Z,29.40
2018-11-26T10:38:37.303Z,29.33
2018-11-26T10:41:05.949Z,29.23
2018-11-26T10:43:34.504Z,32.23
2018-11-26T10:46:02.953Z,28.67
2018-11-26T10:48:31.376Z,29.10
2018-11-26T10:50:59.801Z,27.13
2018-11-26T10:53:28.252Z,31.50
2018-11-26T10:55:56.759Z,29.73
2018-11-26T10:58:25.270Z,32.40
2018-11-26T11:01:01.931Z,33.93
2018-11-26T11:03:30.433Z,30.23
2018-11-26T11:05:58.938Z,31.00
2018-11-26T11:08:27.412Z,33.03
2018-11-26T11:10:55.920Z,30.30
2018-11-26T11:13:24.488Z,30.23
2018-11-26T11:15:53.250Z,34.43
2018-11-26T11:18:21.703Z,29.90
2018-11-26T11:20:50.200Z,33.30
2018-11-26T11:23:19.056Z,31.93
2018-11-26T11:25:48.027Z,29.90
2018-11-26T11:28:16.513Z,32.67
2018-11-26T11:30:52.234Z,31.53
2018-11-26T11:35:48.657Z,34.97
2018-11-26T11:38:17.137Z,41.97
2018-11-26T11:40:45.624Z,35.63
2018-11-26T11:43:14.150Z,35.57
2018-11-26T11:45:42.681Z,37.07
2018-11-26T11:48:11.201Z,36.93
2018-11-26T11:50:39.750Z,35.10
2018-11-26T11:53:08.181Z,36.00
2018-11-26T11:55:37.525Z,35.00
2018-11-26T11:58:06.061Z,33.50
2018-11-26T12:00:38.062Z,39.03
2018-11-26T12:03:10.277Z,37.50
2018-11-26T12:05:38.805Z,35.50
2018-11-26T12:08:08.300Z,33.77
2018-11-26T12:10:36.928Z,31.90
2018-11-26T12:13:06.782Z,31.43
2018-11-26T12:15:36.219Z,35.90
2018-11-26T12:18:05.353Z,34.97
2018-11-26T12:20:33.825Z,31.67
2018-11-26T12:23:02.489Z,33.10
2018-11-26T12:25:31.772Z,36.20
2018-11-26T12:28:00.228Z,31.80
2018-11-26T12:30:30.867Z,32.03
2018-11-26T12:32:59.310Z,32.43
2018-11-26T12:35:27.882Z,32.53
2018-11-26T12:37:56.510Z,32.30
2018-11-26T12:40:25.962Z,29.70
2018-11-26T12:42:55.973Z,31.03
2018-11-26T12:45:28.255Z,31.27
2018-11-26T12:47:56.793Z,32.17
2018-11-26T12:50:25.483Z,33.10
2018-11-26T12:52:54.227Z,31.43
2018-11-26T12:55:23.467Z,30.43
2018-11-26T12:57:53.044Z,26.63
2018-11-26T13:00:22.610Z,30.50
2018-11-26T13:02:53.394Z,32.67
2018-11-26T13:05:22.097Z,33.63
2018-11-26T13:07:50.642Z,30.50
2018-11-26T13:10:21.013Z,28.37
2018-11-26T13:12:50.128Z,32.60
2018-11-26T13:15:20.588Z,29.30
2018-11-26T13:17:49.169Z,29.70
2018-11-26T13:20:19.290Z,32.67
2018-11-26T13:22:47.810Z,28.20
2018-11-26T13:25:18.445Z,32.27
2018-11-26T13:27:52.954Z,32.20
2018-11-26T13:30:24.735Z,27.90
2018-11-26T13:32:56.483Z,30.87
2018-11-26T13:35:25.092Z,30.43
2018-11-26T13:37:53.651Z,29.23
2018-11-26T13:40:22.375Z,31.43
2018-11-26T13:42:51.408Z,30.30
2018-11-26T13:45:24.218Z,30.17
2018-11-26T13:47:53.013Z,30.27
2018-11-26T13:50:26.478Z,36.13
2018-11-26T13:52:55.377Z,31.20
2018-11-26T13:55:23.969Z,32.13
2018-11-26T13:57:52.500Z,31.37
2018-11-26T14:00:21.013Z,29.57
2018-11-26T14:02:49.609Z,28.77
2018-11-26T14:05:18.971Z,30.10
2018-11-26T14:07:47.830Z,32.07
2018-11-26T14:10:18.548Z,33.60
2018-11-26T14:12:48.824Z,30.63
2018-11-26T14:15:17.293Z,33.67
2018-11-26T14:17:45.934Z,32.60
2018-11-26T14:20:15.685Z,32.17
2018-11-26T14:22:44.277Z,31.70
2018-11-26T14:25:13.954Z,35.87
2018-11-26T14:27:42.913Z,32.90
2018-11-26T14:30:23.560Z,31.10
2018-11-26T14:32:52.236Z,30.23
2018-11-26T14:35:20.949Z,31.73
2018-11-26T14:37:50.935Z,31.93
2018-11-26T14:40:22.853Z,28.00
2018-11-26T14:42:51.385Z,33.53
2018-11-26T14:45:19.937Z,29.93
2018-11-26T14:47:48.585Z,30.90
2018-11-26T14:50:17.530Z,32.67
2018-11-26T14:52:47.226Z,32.37
2018-11-26T14:55:20.955Z,34.40
2018-11-26T14:57:49.427Z,31.17
2018-11-26T15:00:18.854Z,30.70
2018-11-26T15:02:47.287Z,29.63
2018-11-26T15:05:15.897Z,32.50
2018-11-26T15:07:44.765Z,32.47
2018-11-26T15:10:16.261Z,30.73
2018-11-26T15:12:46.247Z,29.83
2018-11-26T15:15:16.186Z,29.23
2018-11-26T15:17:45.631Z,29.73
2018-11-26T15:20:16.433Z,31.63
2018-11-26T15:22:44.951Z,35.67
2018-11-26T15:25:29.553Z,30.00
2018-11-26T15:28:01.735Z,29.80
2018-11-26T15:30:30.346Z,30.40
2018-11-26T15:32:58.825Z,28.10
2018-11-26T15:35:27.381Z,35.00
2018-11-26T15:37:55.993Z,30.23
2018-11-26T15:40:24.617Z,31.27
2018-11-26T15:42:53.196Z,30.50
2018-11-26T15:45:27.809Z,30.13
2018-11-26T15:48:00.665Z,30.03
2018-11-26T15:50:29.154Z,31.53
2018-11-26T15:52:57.857Z,31.63
2018-11-26T15:55:26.359Z,30.40
2018-11-26T15:57:55.045Z,31.30
2018-11-26T16:00:24.985Z,30.40
2018-11-26T16:02:54.119Z,31.13
2018-11-26T16:05:24.929Z,33.13
2018-11-26T16:07:54.537Z,31.13
2018-11-26T16:10:23.217Z,33.70
2018-11-26T16:13:00.176Z,30.70
2018-11-26T16:15:30.490Z,31.10
2018-11-26T16:18:00.249Z,29.83
2018-11-26T16:20:29.001Z,28.43
2018-11-26T16:22:58.710Z,34.30
2018-11-26T16:25:27.301Z,30.87
2018-11-26T16:27:55.840Z,28.00
2018-11-26T16:30:24.316Z,28.90
2018-11-26T16:32:54.266Z,29.70
2018-11-26T16:35:26.538Z,32.40
2018-11-26T16:37:55.286Z,30.07
2018-11-26T16:40:23.776Z,30.50
2018-11-26T16:42:52.563Z,29.73
2018-11-26T16:45:22.521Z,27.60
2018-11-26T16:47:52.063Z,28.27
2018-11-26T16:50:21.840Z,28.47
2018-11-26T16:52:51.655Z,31.13
2018-11-26T16:55:19.061Z,30.47
2018-11-26T16:57:47.600Z,30.03
2018-11-26T17:00:17.316Z,30.53
2018-11-26T17:02:46.623Z,27.87
2018-11-26T17:05:20.380Z,25.70
2018-11-26T17:07:49.642Z,32.33
2018-11-26T17:10:18.253Z,30.47
2018-11-26T17:12:46.841Z,30.20
2018-11-26T17:15:16.592Z,31.97
2018-11-26T17:17:45.325Z,32.70
2018-11-26T17:20:14.890Z,31.73
2018-11-26T17:22:43.530Z,32.03
2018-11-26T17:25:13.251Z,30.10
2018-11-26T17:27:42.396Z,34.97
2018-11-26T17:30:17.690Z,28.60
2018-11-26T17:32:47.203Z,27.60
2018-11-26T17:35:16.497Z,27.77
2018-11-26T17:37:45.140Z,31.40
2018-11-26T17:40:19.957Z,32.10
2018-11-26T17:42:48.482Z,32.77
2018-11-26T17:45:17.715Z,28.77
2018-11-26T17:47:49.980Z,32.43
2018-11-26T17:50:22.161Z,27.90
2018-11-26T17:52:50.815Z,28.90
2018-11-26T17:55:19.351Z,31.23
2018-11-26T17:57:47.933Z,31.47
2018-11-26T18:00:18.995Z,30.53
2018-11-26T18:02:47.646Z,29.33
2018-11-26T18:05:19.402Z,29.03
2018-11-26T18:07:49.947Z,29.37
2018-11-26T18:10:19.175Z,30.40
2018-11-26T18:12:47.938Z,31.53
2018-11-26T18:15:16.506Z,29.77
2018-11-26T18:17:46.000Z,30.97
2018-11-26T18:20:17.971Z,33.43
2018-11-26T18:22:47.692Z,32.10
2018-11-26T18:25:16.765Z,33.37
2018-11-26T18:27:50.974Z,33.60
2018-11-26T18:30:28.170Z,32.33
2018-11-26T18:32:56.659Z,34.67
2018-11-26T18:35:25.229Z,36.43
2018-11-26T18:37:53.815Z,35.13
2018-11-26T18:40:22.365Z,34.67
2018-11-26T18:42:50.899Z,37.57
2018-11-26T18:45:20.004Z,38.70
2018-11-26T18:47:48.993Z,38.90
2018-11-26T18:50:20.672Z,36.93
2018-11-26T18:52:50.303Z,34.80
2018-11-26T18:55:19.063Z,34.57
2018-11-26T18:57:47.744Z,39.07
2018-11-26T19:00:20.745Z,34.83
2018-11-26T19:02:49.505Z,35.87
2018-11-26T19:05:18.928Z,36.17
2018-11-26T19:07:47.535Z,36.57
2018-11-26T19:10:17.310Z,37.03
2018-11-26T19:12:47.781Z,36.80
2018-11-26T19:15:19.178Z,34.77
2018-11-26T19:17:48.261Z,40.40
2018-11-26T19:20:16.805Z,37.87
2018-11-26T19:22:45.527Z,34.87
2018-11-26T19:25:15.918Z,35.73
2018-11-26T19:27:44.522Z,37.37
2018-11-26T19:30:14.555Z,37.77
2018-11-26T19:32:44.342Z,40.77
2018-11-26T19:35:14.090Z,40.50
2018-11-26T19:37:42.624Z,43.70
2018-11-26T19:40:12.546Z,38.13
2018-11-26T19:42:42.090Z,45.73
2018-11-26T19:45:13.470Z,45.27
2018-11-26T19:47:42.118Z,45.87
2018-11-26T19:50:12.441Z,49.33
2018-11-26T19:52:40.987Z,49.60
2018-11-26T19:55:13.702Z,50.40
2018-11-26T19:57:42.323Z,46.97
2018-11-26T20:00:13.448Z,55.53
2018-11-26T20:02:42.457Z,46.83
2018-11-26T20:05:24.164Z,46.03
2018-11-26T20:07:52.690Z,49.27
2018-11-26T20:10:21.482Z,49.73
2018-11-26T20:12:50.141Z,53.00
2018-11-26T20:15:18.811Z,50.27
2018-11-26T20:17:47.471Z,50.10
2018-11-26T20:20:16.242Z,47.77
2018-11-26T20:22:44.835Z,52.73
2018-11-26T20:25:14.336Z,51.60
2018-11-26T20:27:43.603Z,48.63
2018-11-26T20:30:15.344Z,52.07
2018-11-26T20:32:46.359Z,45.83
2018-11-26T20:35:15.021Z,52.20
2018-11-26T20:37:43.717Z,49.83
2018-11-26T20:40:13.440Z,54.33
2018-11-26T20:42:46.232Z,54.10
2018-11-26T20:45:15.751Z,51.83
2018-11-26T20:47:45.230Z,55.23
2018-11-26T20:50:18.129Z,53.07
2018-11-26T20:52:46.723Z,53.97
2018-11-26T20:55:17.131Z,58.80
2018-11-26T20:57:46.009Z,52.23
2018-11-26T21:00:17.489Z,54.30
2018-11-26T21:02:47.274Z,56.33
2018-11-26T21:05:15.748Z,56.27
2018-11-26T21:07:44.343Z,54.87
2018-11-26T21:10:13.899Z,55.00
2018-11-26T21:12:42.478Z,54.70
2018-11-26T21:15:14.959Z,64.17
2018-11-26T21:17:45.070Z,53.10
2018-11-26T21:20:17.627Z,60.07
2018-11-26T21:22:46.254Z,52.93
2018-11-26T21:25:15.852Z,56.97
2018-11-26T21:27:44.482Z,54.07
2018-11-26T21:30:15.149Z,56.80
2018-11-26T21:32:43.767Z,59.83
2018-11-26T21:35:14.354Z,62.30
2018-11-26T21:37:44.282Z,60.13
2018-11-26T21:40:14.245Z,59.83
2018-11-26T21:42:42.822Z,60.13
2018-11-26T21:45:14.792Z,59.37
2018-11-26T21:47:43.299Z,61.77
2018-11-26T21:50:15.440Z,53.23
2018-11-26T21:52:44.214Z,60.87
2018-11-26T21:55:16.650Z,59.03
2018-11-26T21:57:46.040Z,62.37
2018-11-26T22:00:17.296Z,59.37
2018-11-26T22:02:45.886Z,58.47
2018-11-26T22:05:14.633Z,59.17
2018-11-26T22:07:43.188Z,60.53
2018-11-26T22:10:13.101Z,61.23
2018-11-26T22:12:42.358Z,60.77
2018-11-26T22:15:12.298Z,61.50
2018-11-26T22:17:41.278Z,59.17
2018-11-26T22:20:21.994Z,61.63
2018-11-26T22:22:50.540Z,63.00
2018-11-26T22:25:19.215Z,64.60
2018-11-26T22:27:47.927Z,62.13
2018-11-26T22:30:19.494Z,61.40
2018-11-26T22:32:48.037Z,60.93
2018-11-26T22:35:16.632Z,64.30
2018-11-26T22:37:45.153Z,63.83
2018-11-26T22:40:15.868Z,60.20
2018-11-26T22:42:44.586Z,63.77
2018-11-26T22:45:18.125Z,59.77
2018-11-26T22:48:05.235Z,62.07
2018-11-26T22:50:33.809Z,66.27
2018-11-26T22:53:02.348Z,60.03
2018-11-26T22:55:30.891Z,67.67
2018-11-26T22:57:59.424Z,59.73
2018-11-26T23:00:34.844Z,65.33
2018-11-26T23:03:03.506Z,64.37
2018-11-26T23:05:32.030Z,64.57
2018-11-26T23:08:00.574Z,64.00
2018-11-26T23:10:29.096Z,64.60
2018-11-26T23:12:57.586Z,60.20
2018-11-26T23:15:26.091Z,61.00
2018-11-26T23:17:54.668Z,62.83
2018-11-26T23:20:23.202Z,64.80
2018-11-26T23:22:51.839Z,70.63
2018-11-26T23:25:20.723Z,60.37
2018-11-26T23:27:49.289Z,69.93
2018-11-26T23:30:20.150Z,70.67
2018-11-26T23:32:52.697Z,61.80
2018-11-26T23:35:21.330Z,65.33
2018-11-26T23:37:49.797Z,67.57
2018-11-26T23:40:18.274Z,63.17
2018-11-26T23:42:46.897Z,66.27
2018-11-26T23:45:16.447Z,59.03
2018-11-26T23:47:44.995Z,70.60
2018-11-26T23:50:14.712Z,70.33
2018-11-26T23:52:43.464Z,63.97
2018-11-26T23:55:14.786Z,67.37
2018-11-26T23:57:43.334Z,66.43
